Time;durP1;ratioP1;P1;durP2;ratioP2;P2;SDS_P1;SDS_P2;PMS_P1;PMS_P2;Temp;Humidity;BMP_temperature;BMP_pressure;BME280_temperature;BME280_humidity;BME280_pressure;Samples;Min_cycle;Max_cycle;Signal;HPM_P1;HPM_P2
2023/09/16 00:01:17;;;;;;;17.83;14.27;;;;;;;13.95;100.00;101383.84;5069156;28;20037;-74
2023/09/16 00:03:43;;;;;;;17.05;14.35;;;;;;;13.91;100.00;101368.25;5071001;28;20111;-74
2023/09/16 00:06:09;;;;;;;16.80;14.02;;;;;;;13.94;100.00;101376.03;5072928;28;20024;-74
2023/09/16 00:08:35;;;;;;;16.48;14.57;;;;;;;13.92;100.00;101383.94;5071481;28;20081;-74
2023/09/16 00:11:00;;;;;;;15.85;13.57;;;;;;;13.86;100.00;101364.91;5067702;28;20238;-74
2023/09/16 00:13:26;;;;;;;15.98;14.25;;;;;;;13.87;100.00;101380.59;5071525;28;20107;-74
2023/09/16 00:15:51;;;;;;;19.67;14.68;;;;;;;13.87;100.00;101377.13;5073777;28;20063;-74
2023/09/16 00:18:18;;;;;;;16.65;14.80;;;;;;;13.85;100.00;101384.16;5071876;28;20021;-74
2023/09/16 00:20:45;;;;;;;16.63;14.88;;;;;;;13.87;100.00;101395.47;5056904;28;20078;-74
2023/09/16 00:23:10;;;;;;;17.48;14.70;;;;;;;13.86;100.00;101393.72;5072475;28;20464;-74
2023/09/16 00:25:36;;;;;;;17.15;15.27;;;;;;;13.82;100.00;101395.56;5068348;28;20040;-74
2023/09/16 00:28:02;;;;;;;16.73;14.32;;;;;;;13.78;100.00;101397.44;5072419;28;20035;-74
2023/09/16 00:30:27;;;;;;;16.85;14.40;;;;;;;13.76;100.00;101390.50;5069020;28;20025;-73
2023/09/16 00:32:53;;;;;;;16.77;14.07;;;;;;;13.77;100.00;101385.25;5071411;28;20031;-73
2023/09/16 00:35:19;;;;;;;17.75;14.63;;;;;;;13.73;100.00;101385.34;5068964;28;20032;-73
2023/09/16 00:37:46;;;;;;;17.80;14.50;;;;;;;13.69;100.00;101386.34;5070806;28;20051;-73
2023/09/16 00:40:12;;;;;;;16.83;14.05;;;;;;;13.69;100.00;101381.97;5068756;28;20024;-73
2023/09/16 00:42:38;;;;;;;17.88;14.52;;;;;;;13.69;100.00;101379.34;5063898;28;20035;-73
2023/09/16 00:45:06;;;;;;;16.55;14.43;;;;;;;13.65;100.00;101382.09;5069735;28;20031;-73
2023/09/16 00:47:33;;;;;;;18.52;14.35;;;;;;;13.60;100.00;101376.97;5069624;28;20036;-73
2023/09/16 00:49:59;;;;;;;17.55;14.52;;;;;;;13.62;100.00;101379.56;5071616;28;20067;-74
2023/09/16 00:52:26;;;;;;;19.92;14.98;;;;;;;13.60;100.00;101374.34;5067006;28;20096;-73
2023/09/16 00:54:53;;;;;;;17.52;14.80;;;;;;;13.59;100.00;101362.16;5072854;28;20029;-73
2023/09/16 00:57:19;;;;;;;16.17;13.93;;;;;;;13.57;100.00;101366.59;5060796;28;20063;-73
2023/09/16 00:59:44;;;;;;;19.92;14.98;;;;;;;13.50;100.00;101355.41;5072093;28;20132;-73
2023/09/16 01:02:10;;;;;;;16.48;14.60;;;;;;;13.53;100.00;101362.31;5066635;28;20494;-73
2023/09/16 01:04:38;;;;;;;16.38;14.68;;;;;;;13.54;100.00;101356.19;5071438;28;20099;-73
2023/09/16 01:07:03;;;;;;;16.27;14.48;;;;;;;13.50;100.00;101358.00;5072028;28;20082;-73
2023/09/16 01:09:29;;;;;;;18.83;14.95;;;;;;;13.48;100.00;101351.13;5070030;28;20025;-73
2023/09/16 01:11:54;;;;;;;19.35;15.38;;;;;;;13.48;100.00;101351.97;5067232;28;20025;-74
2023/09/16 01:14:20;;;;;;;18.00;15.02;;;;;;;13.48;100.00;101344.13;5069041;28;20032;-73
2023/09/16 01:16:57;;;;;;;19.38;14.68;;;;;;;13.47;100.00;101345.03;5071410;28;20090;-73
2023/09/16 01:19:47;;;;;;;18.08;14.98;;;;;;;13.49;100.00;101356.31;5071972;28;20475;-73
2023/09/16 01:22:14;;;;;;;20.67;15.73;;;;;;;13.48;100.00;101351.97;5070747;28;20064;-73
2023/09/16 01:24:40;;;;;;;18.67;15.77;;;;;;;13.45;100.00;101348.59;5070013;28;20039;-73
2023/09/16 01:27:07;;;;;;;19.17;15.98;;;;;;;13.45;100.00;101353.84;5069636;28;20115;-73
2023/09/16 01:29:33;;;;;;;19.25;15.13;;;;;;;13.44;100.00;101349.47;5068311;28;20078;-73
2023/09/16 01:32:04;;;;;;;17.02;15.05;;;;;;;13.39;100.00;101359.22;5072664;28;20028;-73
2023/09/16 01:34:33;;;;;;;18.40;15.32;;;;;;;13.35;100.00;101355.84;5068172;28;20025;-73
2023/09/16 01:36:59;;;;;;;17.17;15.18;;;;;;;13.35;100.00;101361.06;5071155;28;20060;-73
2023/09/16 01:39:29;;;;;;;18.08;16.10;;;;;;;13.33;100.00;101357.63;5068992;28;20353;-74
2023/09/16 01:41:56;;;;;;;21.90;15.48;;;;;;;13.33;100.00;101357.63;5070632;28;20017;-73
2023/09/16 01:44:21;;;;;;;17.58;14.75;;;;;;;13.27;100.00;101348.16;5068620;28;20028;-74
2023/09/16 01:46:47;;;;;;;18.83;15.93;;;;;;;13.29;100.00;101351.63;5070940;28;20115;-73
2023/09/16 01:49:12;;;;;;;19.67;16.13;;;;;;;13.25;100.00;101343.91;5067234;28;20124;-73
2023/09/16 01:51:37;;;;;;;19.88;16.60;;;;;;;13.23;100.00;101336.03;5070654;28;20025;-73
2023/09/16 01:54:03;;;;;;;20.05;15.27;;;;;;;13.26;100.00;101345.59;5067897;28;20033;-73
2023/09/16 01:56:28;;;;;;;17.02;15.05;;;;;;;13.23;100.00;101338.66;5070067;28;20029;-73
2023/09/16 01:58:54;;;;;;;18.38;15.55;;;;;;;13.23;100.00;101346.50;5067668;28;20487;-74
2023/09/16 02:01:19;;;;;;;19.20;14.60;;;;;;;13.19;100.00;101338.78;5069343;28;20120;-73
2023/09/16 02:03:45;;;;;;;16.95;14.70;;;;;;;13.18;100.00;101344.91;5065159;28;20017;-74
2023/09/16 02:06:10;;;;;;;16.27;14.52;;;;;;;13.16;100.00;101336.25;5052207;28;20480;-74
2023/09/16 02:08:35;;;;;;;16.73;14.70;;;;;;;13.12;100.00;101335.47;5059162;28;20021;-74
2023/09/16 02:11:01;;;;;;;16.80;14.60;;;;;;;13.09;100.00;101335.53;5067070;28;20032;-74
2023/09/16 02:13:26;;;;;;;16.77;14.77;;;;;;;13.05;100.00;101336.53;5064774;28;20032;-74
2023/09/16 02:15:52;;;;;;;17.40;14.90;;;;;;;12.98;100.00;101342.78;5070123;28;20031;-74
2023/09/16 02:18:17;;;;;;;17.58;15.13;;;;;;;12.91;100.00;101326.38;5067163;28;20033;-74
2023/09/16 02:20:43;;;;;;;17.40;15.45;;;;;;;12.96;100.00;101342.84;5069995;28;20142;-74
2023/09/16 02:23:08;;;;;;;17.73;15.80;;;;;;;12.91;100.00;101342.09;5069050;28;20111;-74
2023/09/16 02:25:34;;;;;;;18.90;16.38;;;;;;;12.86;100.00;101343.97;5067656;28;20039;-74
2023/09/16 02:27:59;;;;;;;19.15;15.98;;;;;;;12.85;100.00;101345.75;5071962;28;20024;-74
2023/09/16 02:30:24;;;;;;;20.33;17.50;;;;;;;12.80;100.00;101334.50;5066148;28;20025;-74
2023/09/16 02:32:51;;;;;;;19.83;17.60;;;;;;;12.85;100.00;101340.50;5073663;28;20033;-74
2023/09/16 02:35:18;;;;;;;20.25;17.90;;;;;;;12.85;100.00;101339.63;5066878;28;20515;-74
2023/09/16 02:37:44;;;;;;;22.85;18.20;;;;;;;12.82;100.00;101334.50;5072668;28;20028;-74
2023/09/16 02:40:09;;;;;;;20.27;17.92;;;;;;;12.79;100.00;101342.41;5066810;28;20499;-74
2023/09/16 02:42:35;;;;;;;20.73;17.80;;;;;;;12.68;100.00;101332.19;5073557;28;20044;-74
2023/09/16 02:45:01;;;;;;;22.35;19.08;;;;;;;12.65;100.00;101333.16;5066767;28;20468;-74
2023/09/16 02:47:26;;;;;;;26.55;21.63;;;;;;;12.65;100.00;101348.84;5071679;28;20033;-74
2023/09/16 02:49:51;;;;;;;29.27;23.48;;;;;;;12.58;100.00;101336.78;5068969;28;20369;-74
2023/09/16 02:52:18;;;;;;;24.77;22.20;;;;;;;12.64;100.00;101348.88;5069163;28;20035;-74
2023/09/16 02:54:43;;;;;;;26.58;22.50;;;;;;;12.61;100.00;101341.09;5069573;28;20033;-74
2023/09/16 02:57:10;;;;;;;29.65;23.38;;;;;;;12.64;100.00;101338.41;5069164;28;20543;-74
2023/09/16 02:59:35;;;;;;;32.83;26.77;;;;;;;12.66;100.00;101328.78;5068768;28;20104;-74
2023/09/16 03:02:01;;;;;;;32.58;24.85;;;;;;;12.65;100.00;101332.25;5069496;28;20429;-74
2023/09/16 03:04:26;;;;;;;29.55;24.98;;;;;;;12.58;100.00;101328.94;5069757;28;20064;-74
2023/09/16 03:06:51;;;;;;;29.42;25.13;;;;;;;12.62;100.00;101321.88;5068301;28;20387;-74
2023/09/16 03:09:19;;;;;;;29.33;25.35;;;;;;;12.60;100.00;101324.53;5075341;28;20037;-74
2023/09/16 03:11:44;;;;;;;31.35;25.95;;;;;;;12.63;100.00;101323.63;5069475;28;20016;-74
2023/09/16 03:14:10;;;;;;;31.80;25.58;;;;;;;12.61;100.00;101325.41;5067162;28;20029;-74
2023/09/16 03:16:35;;;;;;;30.77;25.20;;;;;;;12.58;100.00;101312.41;5069217;28;20040;-73
2023/09/16 03:19:00;;;;;;;33.55;26.50;;;;;;;12.57;100.00;101329.00;5069731;28;20036;-74
2023/09/16 03:21:26;;;;;;;29.70;24.42;;;;;;;12.54;100.00;101324.69;5067106;28;20040;-74
2023/09/16 03:23:51;;;;;;;29.35;24.90;;;;;;;12.54;100.00;101326.44;5065693;28;20040;-74
2023/09/16 03:26:17;;;;;;;29.38;25.50;;;;;;;12.54;100.00;101321.22;5065727;28;20082;-74
2023/09/16 03:28:45;;;;;;;28.42;24.95;;;;;;;12.52;100.00;101330.84;5064302;28;20025;-74
2023/09/16 03:31:11;;;;;;;30.98;25.45;;;;;;;12.45;100.00;101319.66;5067824;28;20071;-74
2023/09/16 03:33:37;;;;;;;31.58;24.00;;;;;;;12.45;100.00;101318.81;5062814;28;20033;-74
2023/09/16 03:36:04;;;;;;;31.05;24.38;;;;;;;12.47;100.00;101327.50;5069720;28;20032;-74
2023/09/16 03:38:31;;;;;;;30.15;24.42;;;;;;;12.41;100.00;101316.28;5063072;28;20043;-73
2023/09/16 03:40:57;;;;;;;28.38;23.38;;;;;;;12.46;100.00;101325.75;5069818;28;20059;-73
2023/09/16 03:43:22;;;;;;;27.67;23.92;;;;;;;12.44;100.00;101317.09;5063070;28;20025;-74
2023/09/16 03:45:48;;;;;;;27.02;22.90;;;;;;;12.44;100.00;101311.88;5070054;28;20043;-74
2023/09/16 03:48:13;;;;;;;28.92;23.65;;;;;;;12.40;100.00;101309.34;5061824;28;20499;-74
2023/09/16 03:50:39;;;;;;;29.20;23.02;;;;;;;12.41;100.00;101313.66;5062021;28;20033;-74
2023/09/16 03:53:04;;;;;;;30.15;23.77;;;;;;;12.40;100.00;101301.50;5067566;28;20169;-74
2023/09/16 03:55:30;;;;;;;25.83;23.02;;;;;;;12.39;100.00;101306.72;5066760;28;20033;-74
2023/09/16 03:57:55;;;;;;;28.65;23.52;;;;;;;12.43;100.00;101299.72;5065981;28;20052;-74
2023/09/16 04:00:20;;;;;;;26.83;23.33;;;;;;;12.40;100.00;101306.72;5065842;28;20108;-74
2023/09/16 04:02:46;;;;;;;28.77;23.08;;;;;;;12.36;100.00;101309.41;5064712;28;20135;-74
2023/09/16 04:05:14;;;;;;;26.27;23.20;;;;;;;12.37;100.00;101306.78;5065244;28;20090;-74
2023/09/16 04:07:40;;;;;;;28.13;22.75;;;;;;;12.37;100.00;101306.78;5058199;28;20033;-74
2023/09/16 04:10:07;;;;;;;27.20;21.95;;;;;;;12.33;100.00;101302.53;5064981;28;20034;-74
2023/09/16 04:12:32;;;;;;;25.77;22.33;;;;;;;12.33;100.00;101310.38;5063374;28;20044;-74
2023/09/16 04:14:58;;;;;;;26.65;21.90;;;;;;;12.31;100.00;101311.31;5067498;28;20041;-74
2023/09/16 04:17:23;;;;;;;26.98;22.35;;;;;;;12.30;100.00;101309.59;5063495;28;20099;-74
2023/09/16 04:19:48;;;;;;;26.65;21.83;;;;;;;12.25;100.00;101300.97;5058109;28;20017;-74
2023/09/16 04:22:14;;;;;;;25.05;21.60;;;;;;;12.23;100.00;101303.66;5065664;28;20028;-74
2023/09/16 04:24:39;;;;;;;25.92;21.27;;;;;;;12.26;100.00;101307.91;5062904;28;20064;-74
2023/09/16 04:27:04;;;;;;;25.17;22.35;;;;;;;12.21;100.00;101310.66;5065436;28;20085;-74
2023/09/16 04:29:30;;;;;;;26.20;22.10;;;;;;;12.19;100.00;101309.81;5063773;28;20115;-74
2023/09/16 04:31:56;;;;;;;26.70;21.65;;;;;;;12.19;100.00;101309.81;5064647;28;20021;-74
2023/09/16 04:34:21;;;;;;;23.33;20.50;;;;;;;12.09;100.00;101297.84;5065087;28;20025;-74
2023/09/16 04:36:48;;;;;;;25.65;21.38;;;;;;;12.12;100.00;101292.56;5062975;28;20036;-74
2023/09/16 04:39:14;;;;;;;24.75;20.98;;;;;;;12.09;100.00;101284.78;5065230;28;20025;-74
2023/09/16 04:41:39;;;;;;;24.92;20.38;;;;;;;12.13;100.00;101295.16;5063949;28;20025;-74
2023/09/16 04:44:08;;;;;;;23.55;20.05;;;;;;;12.10;100.00;101299.59;5064005;28;20600;-74
2023/09/16 04:46:33;;;;;;;23.77;20.50;;;;;;;11.85;100.00;101263.53;5065042;28;20041;-74
2023/09/16 04:48:58;;;;;;;22.92;19.75;;;;;;;12.08;100.00;101301.38;5063419;28;20060;-74
2023/09/16 04:51:24;;;;;;;23.55;20.10;;;;;;;12.07;100.00;101297.03;5067264;28;20025;-74
2023/09/16 04:53:50;;;;;;;23.58;19.77;;;;;;;12.06;100.00;101303.16;5058178;28;20428;-74
2023/09/16 04:56:15;;;;;;;26.20;20.25;;;;;;;12.05;100.00;101298.81;5053677;28;20033;-74
2023/09/16 04:58:40;;;;;;;23.63;20.20;;;;;;;12.05;100.00;101304.03;5060332;28;20025;-74
2023/09/16 05:01:06;;;;;;;23.40;19.42;;;;;;;11.99;100.00;101285.88;5069760;28;20078;-74
2023/09/16 05:03:31;;;;;;;23.38;19.23;;;;;;;12.05;100.00;101307.53;5060883;28;20380;-74
2023/09/16 05:05:57;;;;;;;23.70;18.98;;;;;;;12.07;100.00;101300.50;5062750;28;20088;-74
2023/09/16 05:08:23;;;;;;;23.23;19.77;;;;;;;12.05;100.00;101296.22;5067150;28;20444;-74
2023/09/16 05:10:56;;;;;;;24.67;20.90;;;;;;;12.06;100.00;101301.38;5060920;28;20055;-74
2023/09/16 05:13:21;;;;;;;25.20;20.83;;;;;;;12.04;100.00;101291.88;5060923;28;20032;-74
2023/09/16 05:15:48;;;;;;;29.42;21.13;;;;;;;12.08;100.00;101303.97;5066174;28;20039;-74
2023/09/16 05:18:14;;;;;;;26.73;22.38;;;;;;;12.06;100.00;101295.31;5061207;28;20094;-74
2023/09/16 05:20:39;;;;;;;28.85;23.35;;;;;;;12.10;100.00;101304.81;5052847;28;20020;-74
2023/09/16 05:23:04;;;;;;;29.50;24.70;;;;;;;12.09;100.00;101300.47;5061303;28;20029;-74
2023/09/16 05:25:30;;;;;;;30.63;24.67;;;;;;;12.06;100.00;101301.38;5068175;28;20031;-74
2023/09/16 05:27:55;;;;;;;29.60;24.00;;;;;;;12.05;100.00;101298.81;5060251;28;20071;-74
2023/09/16 05:30:20;;;;;;;29.88;24.02;;;;;;;12.00;100.00;101296.31;5067563;28;20472;-74
2023/09/16 05:32:46;;;;;;;28.20;23.77;;;;;;;12.04;100.00;101299.72;5061020;28;20032;-74
2023/09/16 05:35:11;;;;;;;30.70;25.40;;;;;;;12.05;100.00;101304.03;5064864;28;20111;-74
2023/09/16 05:37:36;;;;;;;35.85;27.60;;;;;;;12.07;100.00;101303.13;5063531;28;20025;-74
2023/09/16 05:40:02;;;;;;;37.58;26.02;;;;;;;12.10;100.00;101303.06;5063476;28;20495;-74
2023/09/16 05:42:27;;;;;;;33.40;26.25;;;;;;;12.15;100.00;101302.94;5063444;28;20112;-74
2023/09/16 05:44:53;;;;;;;31.10;25.60;;;;;;;12.16;100.00;101302.03;5062924;28;20029;-74
2023/09/16 05:47:18;;;;;;;32.05;25.30;;;;;;;12.19;100.00;101292.38;5067628;28;20060;-74
2023/09/16 05:49:43;;;;;;;31.00;25.63;;;;;;;12.26;100.00;101307.91;5063156;28;20044;-74
2023/09/16 05:52:10;;;;;;;32.95;25.67;;;;;;;12.29;100.00;101300.00;5063650;28;20025;-74
2023/09/16 05:54:35;;;;;;;33.13;26.40;;;;;;;12.28;100.00;101301.78;5062760;28;20458;-74
2023/09/16 05:57:01;;;;;;;34.20;26.83;;;;;;;12.38;100.00;101305.03;5063280;28;20033;-74
2023/09/16 05:59:27;;;;;;;34.25;28.08;;;;;;;12.43;100.00;101299.72;5064005;28;20111;-74
2023/09/16 06:01:53;;;;;;;35.88;27.33;;;;;;;12.46;100.00;101295.25;5063380;28;20033;-74
2023/09/16 06:04:18;;;;;;;31.77;27.77;;;;;;;12.52;100.00;101299.47;5062961;28;20111;-74
2023/09/16 06:06:43;;;;;;;34.25;26.73;;;;;;;12.56;100.00;101299.38;5065293;28;20029;-74
2023/09/16 06:09:09;;;;;;;34.72;26.90;;;;;;;12.59;100.00;101301.91;5060458;28;20025;-74
2023/09/16 06:11:34;;;;;;;37.53;28.10;;;;;;;12.64;100.00;101305.25;5068132;28;20029;-74
2023/09/16 06:13:59;;;;;;;35.03;27.77;;;;;;;12.73;100.00;101306.78;5059935;28;20529;-74
2023/09/16 06:16:25;;;;;;;34.78;28.10;;;;;;;12.80;100.00;101313.59;5061103;28;20029;-74
2023/09/16 06:18:50;;;;;;;34.95;28.23;;;;;;;12.88;100.00;101311.66;5063587;28;20024;-74
2023/09/16 06:21:15;;;;;;;39.03;30.58;;;;;;;12.93;100.00;101314.13;5062224;28;20029;-74
2023/09/16 06:23:42;;;;;;;38.28;28.70;;;;;;;13.01;100.00;101316.53;5061919;28;20185;-74
2023/09/16 06:26:08;;;;;;;37.38;29.08;;;;;;;13.12;100.00;101310.16;5064230;28;20104;-74
2023/09/16 06:28:33;;;;;;;35.05;30.05;;;;;;;13.16;100.00;101307.44;5061134;28;20029;-74
2023/09/16 06:30:58;;;;;;;36.15;30.52;;;;;;;13.24;100.00;101316.84;5065626;28;20075;-74
2023/09/16 06:33:24;;;;;;;38.13;31.23;;;;;;;13.29;100.00;101312.34;5060117;28;20064;-74
2023/09/16 06:35:49;;;;;;;36.97;30.52;;;;;;;13.39;100.00;101314.72;5067506;28;20056;-74
2023/09/16 06:38:14;;;;;;;38.03;29.45;;;;;;;13.47;100.00;101310.09;5059519;28;20025;-74
2023/09/16 06:40:39;;;;;;;36.60;30.10;;;;;;;13.56;100.00;101322.94;5067354;28;20424;-74
2023/09/16 06:43:05;;;;;;;34.00;27.75;;;;;;;13.57;100.00;101311.59;5060287;28;20029;-74
2023/09/16 06:45:30;;;;;;;32.83;27.17;;;;;;;13.73;100.00;101320.72;5065134;28;20033;-74
2023/09/16 06:47:56;;;;;;;33.13;27.73;;;;;;;13.77;100.00;101305.78;5061197;28;20475;-74
2023/09/16 06:50:22;;;;;;;32.25;27.65;;;;;;;13.91;100.00;101316.69;5064405;28;20548;-74
2023/09/16 06:52:47;;;;;;;29.35;25.83;;;;;;;14.01;100.00;101314.66;5062300;28;20044;-74
2023/09/16 06:55:12;;;;;;;31.90;25.27;;;;;;;14.16;100.00;101321.19;5063083;28;20484;-74
2023/09/16 06:57:37;;;;;;;26.45;22.20;;;;;;;14.27;100.00;101321.72;5063279;28;20524;-74
2023/09/16 07:00:03;;;;;;;25.17;21.48;;;;;;;14.26;100.00;101299.88;5066776;28;20064;-74
2023/09/16 07:02:29;;;;;;;25.92;22.27;;;;;;;14.53;100.00;101307.81;5066636;28;20044;-74
2023/09/16 07:04:55;;;;;;;26.17;21.27;;;;;;;14.63;100.00;101303.97;5066077;28;20052;-74
2023/09/16 07:07:23;;;;;;;23.75;20.38;;;;;;;14.71;100.00;101306.34;5067132;28;20036;-74
2023/09/16 07:09:51;;;;;;;23.02;19.30;;;;;;;14.79;100.00;101309.56;5066418;28;20036;-74
2023/09/16 07:12:17;;;;;;;22.00;18.77;;;;;;;14.86;100.00;101311.09;5063392;28;20064;-74
2023/09/16 07:14:42;;;;;;;22.25;18.88;;;;;;;14.99;100.00;101319.41;5066122;28;20055;-74
2023/09/16 07:17:07;;;;;;;22.77;18.80;;;;;;;15.08;100.00;101313.84;5066541;28;20113;-74
2023/09/16 07:19:33;;;;;;;21.05;17.80;;;;;;;15.17;100.00;101310.00;5064130;28;20079;-74
2023/09/16 07:21:59;;;;;;;22.15;18.50;;;;;;;15.27;100.00;101305.28;5066570;28;20387;-74
2023/09/16 07:24:25;;;;;;;23.05;18.80;;;;;;;15.38;100.00;101305.78;5065583;28;20353;-74
2023/09/16 07:26:50;;;;;;;20.30;17.70;;;;;;;15.48;100.00;101309.78;5065310;28;20077;-74
2023/09/16 07:29:18;;;;;;;19.25;17.23;;;;;;;15.61;100.00;101308.44;5066731;28;20032;-74
2023/09/16 07:31:43;;;;;;;20.55;17.05;;;;;;;15.67;100.00;101315.28;5064290;28;20107;-74
2023/09/16 07:34:09;;;;;;;20.98;17.27;;;;;;;15.77;100.00;101308.75;5065587;28;20553;-74
2023/09/16 07:36:34;;;;;;;18.75;16.65;;;;;;;15.87;100.00;101307.47;5064949;28;20029;-74
2023/09/16 07:38:59;;;;;;;19.25;16.92;;;;;;;15.96;100.00;101308.91;5066137;28;20024;-74
2023/09/16 07:41:24;;;;;;;17.48;15.65;;;;;;;16.01;100.00;101306.09;5066499;28;20033;-74
2023/09/16 07:43:50;;;;;;;17.70;15.80;;;;;;;16.15;100.00;101312.53;5063887;28;20029;-74
2023/09/16 07:46:15;;;;;;;22.00;16.73;;;;;;;16.22;100.00;101307.91;5069264;28;20068;-74
2023/09/16 07:48:41;;;;;;;18.45;16.48;;;;;;;16.39;100.00;101313.34;5061834;28;20120;-74
2023/09/16 07:51:06;;;;;;;17.75;15.85;;;;;;;16.52;100.00;101311.06;5071030;28;20025;-74
2023/09/16 07:53:31;;;;;;;18.65;15.75;;;;;;;16.63;100.00;101310.63;5062680;28;20024;-74
2023/09/16 07:55:56;;;;;;;19.90;16.10;;;;;;;16.70;100.00;101316.47;5069947;28;20032;-74
2023/09/16 07:58:22;;;;;;;17.45;15.52;;;;;;;16.74;100.00;101311.06;5062795;28;20025;-74
2023/09/16 08:00:48;;;;;;;16.40;14.70;;;;;;;16.84;100.00;101317.66;5068886;28;20025;-74
2023/09/16 08:03:14;;;;;;;16.45;13.73;;;;;;;16.92;100.00;101314.69;5063506;28;20021;-74
2023/09/16 08:05:39;;;;;;;18.50;14.55;;;;;;;16.95;100.00;101319.84;5061776;28;20078;-74
2023/09/16 08:08:04;;;;;;;16.30;14.15;;;;;;;17.00;100.00;101320.50;5067731;28;20140;-74
2023/09/16 08:10:30;;;;;;;18.92;14.15;;;;;;;17.04;100.00;101323.88;5060286;28;20037;-74
2023/09/16 08:12:55;;;;;;;18.02;13.80;;;;;;;17.09;100.00;101321.88;5061028;28;20025;-74
2023/09/16 08:15:20;;;;;;;17.95;15.27;;;;;;;17.12;100.00;101313.00;5068626;28;20090;-74
2023/09/16 08:17:45;;;;;;;16.35;14.63;;;;;;;17.23;100.00;101324.78;5062272;28;20025;-74
2023/09/16 08:20:11;;;;;;;16.13;14.02;;;;;;;17.31;100.00;101321.81;5069001;28;20028;-74
2023/09/16 08:22:36;;;;;;;15.38;13.63;;;;;;;17.36;100.00;101325.09;5061457;28;20040;-74
2023/09/16 08:25:03;;;;;;;18.35;14.48;;;;;;;17.38;100.00;101312.72;5067177;28;20032;-74
2023/09/16 08:27:28;;;;;;;15.65;12.80;;;;;;;17.58;100.00;101329.41;5064009;28;20029;-74
2023/09/16 08:29:54;;;;;;;16.63;13.40;;;;;;;17.75;100.00;101334.78;5064301;28;20108;-74
2023/09/16 08:32:22;;;;;;;16.55;12.55;;;;;;;17.91;100.00;101334.97;5065513;28;20048;-74
2023/09/16 08:34:50;;;;;;;14.10;12.60;;;;;;;17.99;100.00;101328.41;5064089;28;20029;-74
2023/09/16 08:37:15;;;;;;;14.68;12.70;;;;;;;18.07;100.00;101341.22;5064703;28;20166;-74
2023/09/16 08:39:41;;;;;;;18.48;13.32;;;;;;;18.14;100.00;101345.28;5064348;28;20519;-74
2023/09/16 08:42:34;;;;;;;14.93;12.75;;;;;;;18.23;100.00;101344.88;5065111;28;20529;-74
2023/09/16 08:45:04;;;;;;;16.38;13.00;;;;;;;18.33;100.00;101344.44;5063915;28;20089;-74
2023/09/16 08:47:45;;;;;;;14.05;11.70;;;;;;;18.38;100.00;101342.44;5064913;28;20170;-74
2023/09/16 08:50:11;;;;;;;14.70;12.75;;;;;;;18.49;100.00;101350.69;5061983;28;20492;-74
2023/09/16 08:52:46;;;;;;;15.10;12.32;;;;;;;18.54;100.00;101353.09;5064563;28;20140;-74
2023/09/16 08:55:13;;;;;;;14.38;11.65;;;;;;;18.57;100.00;101358.22;5062236;28;20037;-74
2023/09/16 08:57:45;;;;;;;16.45;12.65;;;;;;;18.51;100.00;101342.66;5064009;28;20024;-74
2023/09/16 09:00:11;;;;;;;15.52;11.70;;;;;;;18.65;100.00;101359.56;5062530;28;20024;-74
2023/09/16 09:02:36;;;;;;;16.30;11.93;;;;;;;18.75;100.00;101351.22;5063636;28;20028;-75
2023/09/16 09:05:06;;;;;;;14.35;11.80;;;;;;;18.84;100.00;101341.06;5063729;28;20048;-73
2023/09/16 09:07:34;;;;;;;15.70;12.13;;;;;;;18.94;100.00;101349.38;5062473;28;20028;-73
2023/09/16 09:09:59;;;;;;;15.80;11.65;;;;;;;19.11;100.00;101343.25;5064426;28;20468;-73
2023/09/16 09:12:25;;;;;;;15.82;12.55;;;;;;;19.26;100.00;101349.50;5059863;28;20025;-73
2023/09/16 09:14:50;;;;;;;18.23;13.57;;;;;;;19.38;100.00;101348.88;5065557;28;20020;-73
2023/09/16 09:17:16;;;;;;;16.23;13.18;;;;;;;19.44;100.00;101353.00;5063680;28;20051;-73
2023/09/16 09:19:43;;;;;;;15.73;13.27;;;;;;;19.43;100.00;101352.16;5062932;28;20111;-73
2023/09/16 09:22:08;;;;;;;16.30;13.65;;;;;;;19.64;100.00;101358.97;5063437;28;20036;-73
2023/09/16 09:24:34;;;;;;;14.27;12.23;;;;;;;19.81;100.00;101360.69;5062867;28;20028;-73
2023/09/16 09:26:59;;;;;;;15.88;12.88;;;;;;;19.92;100.00;101372.53;5063738;28;20464;-73
2023/09/16 09:29:24;;;;;;;18.88;12.43;;;;;;;19.94;100.00;101354.75;5063461;28;20456;-73
2023/09/16 09:31:51;;;;;;;16.60;12.18;;;;;;;20.09;100.00;101368.00;5064108;28;20016;-73
2023/09/16 09:34:19;;;;;;;13.77;11.85;;;;;;;20.29;100.00;101364.25;5063355;28;20392;-73
2023/09/16 09:36:46;;;;;;;13.13;11.07;;;;;;;20.47;100.00;101359.72;5062970;28;20146;-73
2023/09/16 09:39:12;;;;;;;17.67;12.32;;;;;;;20.57;100.00;101363.59;5064000;28;20050;-73
2023/09/16 09:41:46;;;;;;;15.05;12.18;;;;;;;20.73;100.00;101366.22;5062615;28;20492;-73
2023/09/16 09:44:13;;;;;;;17.90;12.50;;;;;;;20.86;100.00;101370.78;5064164;28;20029;-73
2023/09/16 09:46:40;;;;;;;14.98;12.60;;;;;;;20.91;100.00;101376.69;5062827;28;20043;-73
2023/09/16 09:49:06;;;;;;;14.48;11.60;;;;;;;21.01;100.00;101367.25;5063342;28;20461;-73
2023/09/16 09:51:32;;;;;;;13.02;11.73;;;;;;;21.09;100.00;101372.97;5065485;28;20108;-73
2023/09/16 09:53:57;;;;;;;17.42;12.13;;;;;;;21.19;100.00;101362.63;5061236;28;20028;-74
2023/09/16 09:56:23;;;;;;;13.85;11.32;;;;;;;21.37;100.00;101363.38;5067865;28;20389;-74
2023/09/16 09:58:48;;;;;;;11.60;10.35;;;;;;;21.58;100.00;101362.09;5060176;28;20101;-73
2023/09/16 10:01:15;;;;;;;14.50;10.77;;;;;;;21.78;100.00;101359.97;5062770;28;20090;-74
2023/09/16 10:03:48;;;;;;;12.05;10.40;;;;;;;21.99;100.00;101358.63;5062949;28;20032;-74
2023/09/16 10:06:15;;;;;;;11.45;10.27;;;;;;;22.08;100.00;101355.41;5062225;28;20131;-74
2023/09/16 10:08:40;;;;;;;13.82;9.32;;;;;;;22.19;100.00;101358.25;5062962;28;20024;-74
2023/09/16 10:11:06;;;;;;;11.43;10.23;;;;;;;22.14;100.00;101356.81;5060687;28;20029;-74
2023/09/16 10:13:32;;;;;;;14.45;10.00;;;;;;;22.16;100.00;101355.78;5062707;28;20094;-74
2023/09/16 10:16:00;;;;;;;14.20;9.77;;;;;;;22.23;100.00;101350.06;5063085;28;20025;-73
2023/09/16 10:18:27;;;;;;;12.18;9.60;;;;;;;22.35;100.00;101347.50;5062024;28;20428;-74
2023/09/16 10:20:53;;;;;;;9.50;8.38;;;;;;;22.36;100.00;101356.31;5065679;28;20024;-74
2023/09/16 10:23:20;;;;;;;11.88;9.52;;;;;;;22.42;100.00;101355.91;5060179;28;20107;-74
2023/09/16 10:25:45;;;;;;;10.55;9.48;;;;;;;22.48;100.00;101344.03;5067262;28;20108;-74
2023/09/16 10:28:12;;;;;;;14.18;9.07;;;;;;;22.51;100.00;101349.16;5060628;28;20432;-74
2023/09/16 10:30:38;;;;;;;12.55;9.00;;;;;;;22.56;100.00;101347.03;5067203;28;20085;-74
2023/09/16 10:33:05;;;;;;;15.73;9.52;;;;;;;22.59;100.00;101347.69;5062291;28;20021;-74
2023/09/16 10:35:33;;;;;;;11.30;10.10;;;;;;;22.64;100.00;101342.91;5071456;28;20035;-74
2023/09/16 10:38:01;;;;;;;12.43;9.88;;;;;;;22.70;100.00;101347.00;5064062;28;20028;-74
2023/09/16 10:40:27;;;;;;;11.68;10.07;;;;;;;22.75;100.00;101347.50;5071288;28;20112;-74
2023/09/16 10:42:54;;;;;;;10.98;8.73;;;;;;;22.82;100.00;101335.50;5064198;28;20060;-74
2023/09/16 10:45:21;;;;;;;14.80;9.43;;;;;;;22.90;100.00;101343.00;5068120;28;20025;-74
2023/09/16 10:47:47;;;;;;;10.75;9.13;;;;;;;22.95;100.00;101340.03;5066056;28;20036;-74
2023/09/16 10:50:12;;;;;;;11.55;9.68;;;;;;;22.84;100.00;101324.78;5067061;28;20051;-74
2023/09/16 10:53:02;;;;;;;10.55;9.32;;;;;;;22.84;100.00;101336.28;5066887;28;20097;-74
2023/09/16 10:55:49;;;;;;;11.18;9.20;;;;;;;22.84;100.00;101332.75;5062930;28;20064;-74
2023/09/16 10:58:41;;;;;;;11.98;9.25;;;;;;;22.94;100.00;101331.22;5057432;28;20057;-74